Terminal Aerodrome Forecast
Issued by NWS

Home | Current Version | Previous Version | Text Only | Print | Product List | Glossary On
Versions: 1 2 3 4 5 6 7 8 9 10 11 12 13 14 15 16 17 18 19 20 21 22 23 24 25 26 27
000
FTUS44 KMAF 191000 AAC
TAFHOB
TAF AMD
KHOB 191044Z 1911/2006 08008KT P6SM OVC006
      TEMPO 1911/1914 3SM TSRA BR OVC005CB
     FM191400 12010KT P6SM OVC015
      TEMPO 1914/1918 3SM TSRA BR OVC005CB
     FM191800 13012KT P6SM OVC020
      TEMPO 1918/1922 3SM TSRA BR OVC010CB=

USA.gov is the U.S. government's official web portal to all federal, state and local government web resources and services.